sensor_id;sensor_type;location;lat;lon;timestamp;temperature;humidity
61092;DHT22;46975;51.898;11.444;2022-10-16T00:01:22;15.50;99.90
61092;DHT22;46975;51.898;11.444;2022-10-16T00:03:48;15.50;99.90
61092;DHT22;46975;51.898;11.444;2022-10-16T00:06:16;15.50;99.90
61092;DHT22;46975;51.898;11.444;2022-10-16T00:08:43;15.60;99.90
61092;DHT22;46975;51.898;11.444;2022-10-16T00:11:18;15.60;99.90
61092;DHT22;46975;51.898;11.444;2022-10-16T00:13:45;15.70;99.90
61092;DHT22;46975;51.898;11.444;2022-10-16T00:16:12;15.80;99.90
61092;DHT22;46975;51.898;11.444;2022-10-16T00:18:39;15.80;99.90
61092;DHT22;46975;51.898;11.444;2022-10-16T00:21:16;15.80;99.90
61092;DHT22;46975;51.898;11.444;2022-10-16T00:23:42;15.80;99.90
61092;DHT22;46975;51.898;11.444;2022-10-16T00:26:11;15.70;99.90
61092;DHT22;46975;51.898;11.444;2022-10-16T00:28:37;15.70;99.90
61092;DHT22;46975;51.898;11.444;2022-10-16T00:31:05;15.70;99.90
61092;DHT22;46975;51.898;11.444;2022-10-16T00:33:31;15.60;99.90
61092;DHT22;46975;51.898;11.444;2022-10-16T00:36:01;15.60;99.90
61092;DHT22;46975;51.898;11.444;2022-10-16T00:38:27;15.60;99.90
61092;DHT22;46975;51.898;11.444;2022-10-16T00:40:53;15.60;99.90
61092;DHT22;46975;51.898;11.444;2022-10-16T00:43:47;15.50;99.90
61092;DHT22;46975;51.898;11.444;2022-10-16T00:48:39;15.40;99.90
61092;DHT22;46975;51.898;11.444;2022-10-16T00:51:06;15.20;99.90
61092;DHT22;46975;51.898;11.444;2022-10-16T00:53:32;15.20;99.90
61092;DHT22;46975;51.898;11.444;2022-10-16T00:55:58;15.30;99.90
61092;DHT22;46975;51.898;11.444;2022-10-16T00:58:24;15.30;99.90
61092;DHT22;46975;51.898;11.444;2022-10-16T01:00:50;15.20;99.90
61092;DHT22;46975;51.898;11.444;2022-10-16T01:03:28;15.20;99.90
61092;DHT22;46975;51.898;11.444;2022-10-16T01:14:58;15.30;99.90
61092;DHT22;46975;51.898;11.444;2022-10-16T01:17:38;15.30;99.90
61092;DHT22;46975;51.898;11.444;2022-10-16T01:21:10;15.20;99.90
61092;DHT22;46975;51.898;11.444;2022-10-16T01:31:27;14.90;99.90
61092;DHT22;46975;51.898;11.444;2022-10-16T01:34:22;14.90;99.90
61092;DHT22;46975;51.898;11.444;2022-10-16T01:36:53;14.80;99.90
61092;DHT22;46975;51.898;11.444;2022-10-16T01:39:24;14.80;99.90
61092;DHT22;46975;51.898;11.444;2022-10-16T01:42:00;14.80;99.90
61092;DHT22;46975;51.898;11.444;2022-10-16T01:44:29;14.90;99.90
61092;DHT22;46975;51.898;11.444;2022-10-16T01:46:57;15.00;99.90
61092;DHT22;46975;51.898;11.444;2022-10-16T01:49:26;15.10;99.90
61092;DHT22;46975;51.898;11.444;2022-10-16T01:51:56;15.20;99.90
61092;DHT22;46975;51.898;11.444;2022-10-16T01:54:27;15.20;99.90
61092;DHT22;46975;51.898;11.444;2022-10-16T01:56:55;15.10;99.90
61092;DHT22;46975;51.898;11.444;2022-10-16T01:59:23;15.40;99.90
61092;DHT22;46975;51.898;11.444;2022-10-16T02:01:54;15.40;99.90
61092;DHT22;46975;51.898;11.444;2022-10-16T02:04:24;15.50;99.90
61092;DHT22;46975;51.898;11.444;2022-10-16T02:06:52;15.50;99.90
61092;DHT22;46975;51.898;11.444;2022-10-16T02:09:18;15.50;99.90
61092;DHT22;46975;51.898;11.444;2022-10-16T02:11:44;15.50;99.90
61092;DHT22;46975;51.898;11.444;2022-10-16T02:14:10;15.50;99.90
61092;DHT22;46975;51.898;11.444;2022-10-16T02:16:45;15.50;99.90
61092;DHT22;46975;51.898;11.444;2022-10-16T02:19:12;15.60;99.90
61092;DHT22;46975;51.898;11.444;2022-10-16T02:21:56;15.60;99.90
61092;DHT22;46975;51.898;11.444;2022-10-16T02:24:33;15.50;99.90
61092;DHT22;46975;51.898;11.444;2022-10-16T02:27:38;15.60;99.90
61092;DHT22;46975;51.898;11.444;2022-10-16T02:30:46;15.50;99.90
61092;DHT22;46975;51.898;11.444;2022-10-16T02:33:11;15.50;99.90
61092;DHT22;46975;51.898;11.444;2022-10-16T02:35:38;15.50;99.90
61092;DHT22;46975;51.898;11.444;2022-10-16T02:38:06;15.50;99.90
61092;DHT22;46975;51.898;11.444;2022-10-16T02:40:33;15.50;99.90
61092;DHT22;46975;51.898;11.444;2022-10-16T02:42:59;15.50;99.90
61092;DHT22;46975;51.898;11.444;2022-10-16T02:45:24;15.60;99.90
61092;DHT22;46975;51.898;11.444;2022-10-16T02:47:50;15.60;99.90
61092;DHT22;46975;51.898;11.444;2022-10-16T02:50:17;15.70;99.90
61092;DHT22;46975;51.898;11.444;2022-10-16T02:52:43;15.70;99.90
61092;DHT22;46975;51.898;11.444;2022-10-16T02:55:08;15.70;99.90
61092;DHT22;46975;51.898;11.444;2022-10-16T02:57:35;15.70;99.90
61092;DHT22;46975;51.898;11.444;2022-10-16T03:00:04;15.70;99.90
61092;DHT22;46975;51.898;11.444;2022-10-16T03:02:30;15.60;99.90
61092;DHT22;46975;51.898;11.444;2022-10-16T03:04:56;15.60;99.90
61092;DHT22;46975;51.898;11.444;2022-10-16T03:07:21;15.60;99.90
61092;DHT22;46975;51.898;11.444;2022-10-16T03:09:47;15.60;99.90
61092;DHT22;46975;51.898;11.444;2022-10-16T03:12:12;15.60;99.90
61092;DHT22;46975;51.898;11.444;2022-10-16T03:14:38;15.60;99.90
61092;DHT22;46975;51.898;11.444;2022-10-16T03:17:05;15.60;99.90
61092;DHT22;46975;51.898;11.444;2022-10-16T03:19:31;15.60;99.90
61092;DHT22;46975;51.898;11.444;2022-10-16T03:21:56;15.60;99.90
61092;DHT22;46975;51.898;11.444;2022-10-16T03:24:22;15.60;99.90
61092;DHT22;46975;51.898;11.444;2022-10-16T03:26:48;15.60;99.90
61092;DHT22;46975;51.898;11.444;2022-10-16T03:29:14;15.60;99.90
61092;DHT22;46975;51.898;11.444;2022-10-16T03:31:39;15.60;99.90
61092;DHT22;46975;51.898;11.444;2022-10-16T03:34:05;15.60;99.90
61092;DHT22;46975;51.898;11.444;2022-10-16T03:36:31;15.70;99.90
61092;DHT22;46975;51.898;11.444;2022-10-16T03:38:57;15.70;99.90
61092;DHT22;46975;51.898;11.444;2022-10-16T03:41:22;15.70;99.90
61092;DHT22;46975;51.898;11.444;2022-10-16T03:43:48;15.70;99.90
61092;DHT22;46975;51.898;11.444;2022-10-16T03:46:14;15.70;99.90
61092;DHT22;46975;51.898;11.444;2022-10-16T03:48:39;15.70;99.90
61092;DHT22;46975;51.898;11.444;2022-10-16T03:51:05;15.70;99.90
61092;DHT22;46975;51.898;11.444;2022-10-16T03:53:31;15.70;99.90
61092;DHT22;46975;51.898;11.444;2022-10-16T03:55:57;15.70;99.90
61092;DHT22;46975;51.898;11.444;2022-10-16T03:58:23;15.70;99.90
61092;DHT22;46975;51.898;11.444;2022-10-16T04:00:49;15.70;99.90
61092;DHT22;46975;51.898;11.444;2022-10-16T04:03:15;15.70;99.90
61092;DHT22;46975;51.898;11.444;2022-10-16T04:05:41;15.70;99.90
61092;DHT22;46975;51.898;11.444;2022-10-16T04:08:07;15.70;99.90
61092;DHT22;46975;51.898;11.444;2022-10-16T04:10:33;15.70;99.90
61092;DHT22;46975;51.898;11.444;2022-10-16T04:12:58;15.80;99.90
61092;DHT22;46975;51.898;11.444;2022-10-16T04:15:25;15.80;99.90
61092;DHT22;46975;51.898;11.444;2022-10-16T04:17:51;15.80;99.90
61092;DHT22;46975;51.898;11.444;2022-10-16T04:20:17;15.80;99.90
61092;DHT22;46975;51.898;11.444;2022-10-16T04:22:43;15.70;99.90
61092;DHT22;46975;51.898;11.444;2022-10-16T04:25:10;15.80;99.90
61092;DHT22;46975;51.898;11.444;2022-10-16T04:27:36;15.80;99.90
61092;DHT22;46975;51.898;11.444;2022-10-16T04:30:02;15.70;99.90
61092;DHT22;46975;51.898;11.444;2022-10-16T04:32:28;15.80;99.90
61092;DHT22;46975;51.898;11.444;2022-10-16T04:34:54;15.90;99.90
61092;DHT22;46975;51.898;11.444;2022-10-16T04:37:24;15.90;99.90
61092;DHT22;46975;51.898;11.444;2022-10-16T04:39:50;15.90;99.90
61092;DHT22;46975;51.898;11.444;2022-10-16T04:42:16;15.90;99.90
61092;DHT22;46975;51.898;11.444;2022-10-16T04:44:42;15.90;99.90
61092;DHT22;46975;51.898;11.444;2022-10-16T04:47:07;15.90;99.90
61092;DHT22;46975;51.898;11.444;2022-10-16T04:49:33;15.80;99.90
61092;DHT22;46975;51.898;11.444;2022-10-16T04:51:59;15.80;99.90
61092;DHT22;46975;51.898;11.444;2022-10-16T04:54:24;15.70;99.90
61092;DHT22;46975;51.898;11.444;2022-10-16T04:56:50;15.70;99.90
61092;DHT22;46975;51.898;11.444;2022-10-16T04:59:18;15.70;99.90
61092;DHT22;46975;51.898;11.444;2022-10-16T05:01:45;15.60;99.90
61092;DHT22;46975;51.898;11.444;2022-10-16T05:04:11;15.60;99.90
61092;DHT22;46975;51.898;11.444;2022-10-16T05:06:37;15.60;99.90
61092;DHT22;46975;51.898;11.444;2022-10-16T05:09:04;15.60;99.90
61092;DHT22;46975;51.898;11.444;2022-10-16T05:11:30;15.60;99.90
61092;DHT22;46975;51.898;11.444;2022-10-16T05:13:56;15.60;99.90
61092;DHT22;46975;51.898;11.444;2022-10-16T05:16:22;15.50;99.90
61092;DHT22;46975;51.898;11.444;2022-10-16T05:18:47;15.50;99.90
61092;DHT22;46975;51.898;11.444;2022-10-16T05:21:13;15.40;99.90
61092;DHT22;46975;51.898;11.444;2022-10-16T05:23:39;15.30;99.90
61092;DHT22;46975;51.898;11.444;2022-10-16T05:26:06;15.20;99.90
61092;DHT22;46975;51.898;11.444;2022-10-16T05:28:31;15.20;99.90
61092;DHT22;46975;51.898;11.444;2022-10-16T05:30:57;15.10;99.90
61092;DHT22;46975;51.898;11.444;2022-10-16T05:33:25;15.00;99.90
61092;DHT22;46975;51.898;11.444;2022-10-16T05:35:51;15.00;99.90
61092;DHT22;46975;51.898;11.444;2022-10-16T05:38:17;14.90;99.90
61092;DHT22;46975;51.898;11.444;2022-10-16T05:40:44;14.90;99.90
61092;DHT22;46975;51.898;11.444;2022-10-16T05:43:15;14.80;99.90
61092;DHT22;46975;51.898;11.444;2022-10-16T05:45:41;14.80;99.90
61092;DHT22;46975;51.898;11.444;2022-10-16T05:48:06;14.80;99.90
61092;DHT22;46975;51.898;11.444;2022-10-16T05:50:32;15.00;99.90
61092;DHT22;46975;51.898;11.444;2022-10-16T05:52:57;15.00;99.90
61092;DHT22;46975;51.898;11.444;2022-10-16T05:55:23;15.10;99.90
61092;DHT22;46975;51.898;11.444;2022-10-16T05:57:49;15.10;99.90
61092;DHT22;46975;51.898;11.444;2022-10-16T06:00:14;15.10;99.90
61092;DHT22;46975;51.898;11.444;2022-10-16T06:02:40;15.10;99.90
61092;DHT22;46975;51.898;11.444;2022-10-16T06:05:06;15.00;99.90
61092;DHT22;46975;51.898;11.444;2022-10-16T06:07:34;15.10;99.90
61092;DHT22;46975;51.898;11.444;2022-10-16T06:10:02;15.10;99.90
61092;DHT22;46975;51.898;11.444;2022-10-16T06:12:28;15.10;99.90
61092;DHT22;46975;51.898;11.444;2022-10-16T06:14:53;15.10;99.90
61092;DHT22;46975;51.898;11.444;2022-10-16T06:17:19;15.00;99.90
61092;DHT22;46975;51.898;11.444;2022-10-16T06:19:45;15.10;99.90
61092;DHT22;46975;51.898;11.444;2022-10-16T06:22:11;15.10;99.90
61092;DHT22;46975;51.898;11.444;2022-10-16T06:24:36;15.10;99.90
61092;DHT22;46975;51.898;11.444;2022-10-16T06:27:03;15.20;99.90
61092;DHT22;46975;51.898;11.444;2022-10-16T06:29:29;15.20;99.90
61092;DHT22;46975;51.898;11.444;2022-10-16T06:31:55;15.20;99.90
61092;DHT22;46975;51.898;11.444;2022-10-16T06:34:20;15.30;99.90
61092;DHT22;46975;51.898;11.444;2022-10-16T06:36:46;15.30;99.90
61092;DHT22;46975;51.898;11.444;2022-10-16T06:39:12;15.30;99.90
61092;DHT22;46975;51.898;11.444;2022-10-16T06:41:37;15.30;99.90
61092;DHT22;46975;51.898;11.444;2022-10-16T06:44:06;15.20;99.90
61092;DHT22;46975;51.898;11.444;2022-10-16T06:46:33;15.30;99.90
61092;DHT22;46975;51.898;11.444;2022-10-16T06:48:59;15.20;99.90
61092;DHT22;46975;51.898;11.444;2022-10-16T06:51:25;15.30;99.90
61092;DHT22;46975;51.898;11.444;2022-10-16T06:53:54;15.30;99.90
61092;DHT22;46975;51.898;11.444;2022-10-16T06:56:22;15.30;99.90
61092;DHT22;46975;51.898;11.444;2022-10-16T06:58:48;15.40;99.90
61092;DHT22;46975;51.898;11.444;2022-10-16T07:01:15;15.50;99.90
61092;DHT22;46975;51.898;11.444;2022-10-16T07:03:42;15.50;99.90
61092;DHT22;46975;51.898;11.444;2022-10-16T07:06:10;15.60;99.90
61092;DHT22;46975;51.898;11.444;2022-10-16T07:08:38;15.60;99.90
61092;DHT22;46975;51.898;11.444;2022-10-16T07:11:06;15.70;99.90
61092;DHT22;46975;51.898;11.444;2022-10-16T07:13:40;15.70;99.90
61092;DHT22;46975;51.898;11.444;2022-10-16T07:16:12;15.90;99.90
61092;DHT22;46975;51.898;11.444;2022-10-16T07:18:38;15.90;99.90
61092;DHT22;46975;51.898;11.444;2022-10-16T07:21:07;16.00;99.90
61092;DHT22;46975;51.898;11.444;2022-10-16T07:23:33;16.10;99.90
61092;DHT22;46975;51.898;11.444;2022-10-16T07:25:59;16.20;99.90
61092;DHT22;46975;51.898;11.444;2022-10-16T07:28:25;16.40;99.90
61092;DHT22;46975;51.898;11.444;2022-10-16T07:30:50;16.50;99.90
61092;DHT22;46975;51.898;11.444;2022-10-16T07:33:16;16.50;99.90
61092;DHT22;46975;51.898;11.444;2022-10-16T07:35:52;16.60;99.90
61092;DHT22;46975;51.898;11.444;2022-10-16T07:38:18;16.60;99.90
61092;DHT22;46975;51.898;11.444;2022-10-16T07:40:45;16.60;99.90
61092;DHT22;46975;51.898;11.444;2022-10-16T07:43:10;16.70;99.90
61092;DHT22;46975;51.898;11.444;2022-10-16T07:45:36;16.80;99.90
61092;DHT22;46975;51.898;11.444;2022-10-16T07:48:02;16.80;99.90
61092;DHT22;46975;51.898;11.444;2022-10-16T07:50:28;16.80;99.90
61092;DHT22;46975;51.898;11.444;2022-10-16T07:52:53;16.80;99.90
61092;DHT22;46975;51.898;11.444;2022-10-16T07:55:19;16.90;99.90
61092;DHT22;46975;51.898;11.444;2022-10-16T07:57:45;16.90;99.90
61092;DHT22;46975;51.898;11.444;2022-10-16T08:00:11;16.90;99.90
61092;DHT22;46975;51.898;11.444;2022-10-16T08:02:39;17.00;99.90
61092;DHT22;46975;51.898;11.444;2022-10-16T08:05:06;17.10;99.90
61092;DHT22;46975;51.898;11.444;2022-10-16T08:07:32;17.10;99.90
61092;DHT22;46975;51.898;11.444;2022-10-16T08:09:57;17.10;99.90
61092;DHT22;46975;51.898;11.444;2022-10-16T08:12:25;17.20;99.90
61092;DHT22;46975;51.898;11.444;2022-10-16T08:14:50;17.20;99.90
61092;DHT22;46975;51.898;11.444;2022-10-16T08:17:16;17.30;99.90
61092;DHT22;46975;51.898;11.444;2022-10-16T08:19:46;17.30;99.90
61092;DHT22;46975;51.898;11.444;2022-10-16T08:22:13;17.30;99.90
61092;DHT22;46975;51.898;11.444;2022-10-16T08:24:39;17.20;99.90
61092;DHT22;46975;51.898;11.444;2022-10-16T08:27:05;17.20;99.90
61092;DHT22;46975;51.898;11.444;2022-10-16T08:29:30;17.20;99.90
61092;DHT22;46975;51.898;11.444;2022-10-16T08:31:56;17.20;99.90
61092;DHT22;46975;51.898;11.444;2022-10-16T08:34:22;17.30;99.90
61092;DHT22;46975;51.898;11.444;2022-10-16T08:36:47;17.40;99.90
61092;DHT22;46975;51.898;11.444;2022-10-16T08:39:13;17.40;99.90
61092;DHT22;46975;51.898;11.444;2022-10-16T08:47:22;17.60;99.90
61092;DHT22;46975;51.898;11.444;2022-10-16T08:50:13;17.60;99.90
61092;DHT22;46975;51.898;11.444;2022-10-16T08:52:42;17.70;99.90
61092;DHT22;46975;51.898;11.444;2022-10-16T08:58:00;17.90;99.90
61092;DHT22;46975;51.898;11.444;2022-10-16T09:00:27;17.90;99.90
61092;DHT22;46975;51.898;11.444;2022-10-16T09:06:04;17.90;99.90
61092;DHT22;46975;51.898;11.444;2022-10-16T09:09:10;17.90;99.90
61092;DHT22;46975;51.898;11.444;2022-10-16T09:11:53;17.90;99.90
61092;DHT22;46975;51.898;11.444;2022-10-16T09:17:46;18.10;99.90
61092;DHT22;46975;51.898;11.444;2022-10-16T09:22:50;18.40;99.90
61092;DHT22;46975;51.898;11.444;2022-10-16T09:25:20;18.60;99.90
61092;DHT22;46975;51.898;11.444;2022-10-16T09:27:52;18.60;99.90
61092;DHT22;46975;51.898;11.444;2022-10-16T09:30:20;18.70;99.90
61092;DHT22;46975;51.898;11.444;2022-10-16T09:32:49;18.80;99.90
61092;DHT22;46975;51.898;11.444;2022-10-16T09:35:22;18.90;99.90
61092;DHT22;46975;51.898;11.444;2022-10-16T09:37:51;18.90;99.90
61092;DHT22;46975;51.898;11.444;2022-10-16T09:40:27;19.00;99.90
61092;DHT22;46975;51.898;11.444;2022-10-16T09:45:57;18.80;99.90
61092;DHT22;46975;51.898;11.444;2022-10-16T09:48:26;18.90;99.90
61092;DHT22;46975;51.898;11.444;2022-10-16T09:50:57;18.90;99.90
61092;DHT22;46975;51.898;11.444;2022-10-16T09:53:23;18.80;99.90
61092;DHT22;46975;51.898;11.444;2022-10-16T09:55:50;18.70;99.90
61092;DHT22;46975;51.898;11.444;2022-10-16T09:58:17;18.70;99.90
61092;DHT22;46975;51.898;11.444;2022-10-16T10:00:52;18.70;99.90
61092;DHT22;46975;51.898;11.444;2022-10-16T10:03:44;18.80;99.90
61092;DHT22;46975;51.898;11.444;2022-10-16T10:06:24;18.80;99.90
61092;DHT22;46975;51.898;11.444;2022-10-16T10:11:49;18.70;99.90
61092;DHT22;46975;51.898;11.444;2022-10-16T10:17:10;18.70;99.90
61092;DHT22;46975;51.898;11.444;2022-10-16T10:26:01;19.30;99.90
61092;DHT22;46975;51.898;11.444;2022-10-16T10:31:13;20.20;99.90
61092;DHT22;46975;51.898;11.444;2022-10-16T10:34:04;20.20;99.90
61092;DHT22;46975;51.898;11.444;2022-10-16T10:36:38;20.10;99.90
61092;DHT22;46975;51.898;11.444;2022-10-16T10:39:34;20.00;99.90
61092;DHT22;46975;51.898;11.444;2022-10-16T10:45:22;19.80;99.90
61092;DHT22;46975;51.898;11.444;2022-10-16T10:47:53;19.80;99.90
61092;DHT22;46975;51.898;11.444;2022-10-16T10:50:24;19.70;99.90
61092;DHT22;46975;51.898;11.444;2022-10-16T10:55:45;19.60;99.90
61092;DHT22;46975;51.898;11.444;2022-10-16T11:06:17;19.80;99.90
61092;DHT22;46975;51.898;11.444;2022-10-16T11:08:53;19.90;99.90
61092;DHT22;46975;51.898;11.444;2022-10-16T11:14:20;19.80;99.90
61092;DHT22;46975;51.898;11.444;2022-10-16T11:19:46;19.70;99.90
61092;DHT22;46975;51.898;11.444;2022-10-16T11:25:13;19.60;99.90
61092;DHT22;46975;51.898;11.444;2022-10-16T11:27:51;19.30;99.90
61092;DHT22;46975;51.898;11.444;2022-10-16T11:30:26;19.20;99.90
61092;DHT22;46975;51.898;11.444;2022-10-16T11:36:00;19.40;99.90
61092;DHT22;46975;51.898;11.444;2022-10-16T11:47:35;19.60;99.90
61092;DHT22;46975;51.898;11.444;2022-10-16T11:49:36;19.70;99.90
61092;DHT22;46975;51.898;11.444;2022-10-16T11:52:35;19.70;99.90
61092;DHT22;46975;51.898;11.444;2022-10-16T11:55:18;19.60;99.90
61092;DHT22;46975;51.898;11.444;2022-10-16T11:57:57;19.60;99.90
61092;DHT22;46975;51.898;11.444;2022-10-16T12:00:35;19.80;99.90
61092;DHT22;46975;51.898;11.444;2022-10-16T12:08:38;19.90;99.90
61092;DHT22;46975;51.898;11.444;2022-10-16T12:14:07;20.00;99.90
61092;DHT22;46975;51.898;11.444;2022-10-16T12:17:00;20.10;99.90
61092;DHT22;46975;51.898;11.444;2022-10-16T12:19:29;20.20;99.90
61092;DHT22;46975;51.898;11.444;2022-10-16T12:22:02;20.10;99.90
61092;DHT22;46975;51.898;11.444;2022-10-16T12:24:41;20.10;99.90
61092;DHT22;46975;51.898;11.444;2022-10-16T12:29:55;20.30;99.90
61092;DHT22;46975;51.898;11.444;2022-10-16T12:32:37;20.20;99.90
61092;DHT22;46975;51.898;11.444;2022-10-16T12:35:06;20.40;99.90
61092;DHT22;46975;51.898;11.444;2022-10-16T12:37:34;20.30;99.90
61092;DHT22;46975;51.898;11.444;2022-10-16T12:42:47;20.40;99.90
61092;DHT22;46975;51.898;11.444;2022-10-16T12:45:28;20.30;99.90
61092;DHT22;46975;51.898;11.444;2022-10-16T12:47:55;20.20;99.90
61092;DHT22;46975;51.898;11.444;2022-10-16T12:52:52;20.30;99.90
61092;DHT22;46975;51.898;11.444;2022-10-16T12:55:20;20.40;99.90
61092;DHT22;46975;51.898;11.444;2022-10-16T13:00:45;20.50;99.90
61092;DHT22;46975;51.898;11.444;2022-10-16T13:03:52;20.60;99.90
61092;DHT22;46975;51.898;11.444;2022-10-16T13:17:51;20.80;99.90
61092;DHT22;46975;51.898;11.444;2022-10-16T13:20:25;20.80;99.90
61092;DHT22;46975;51.898;11.444;2022-10-16T13:25:53;20.80;99.90
61092;DHT22;46975;51.898;11.444;2022-10-16T13:28:28;20.90;99.90
61092;DHT22;46975;51.898;11.444;2022-10-16T13:30:58;20.80;99.90
61092;DHT22;46975;51.898;11.444;2022-10-16T13:33:48;20.80;99.90
61092;DHT22;46975;51.898;11.444;2022-10-16T13:36:24;20.80;99.90
61092;DHT22;46975;51.898;11.444;2022-10-16T13:41:37;21.10;99.90
61092;DHT22;46975;51.898;11.444;2022-10-16T13:44:04;20.90;99.90
61092;DHT22;46975;51.898;11.444;2022-10-16T13:46:30;20.80;99.90
61092;DHT22;46975;51.898;11.444;2022-10-16T13:49:25;20.80;99.90
61092;DHT22;46975;51.898;11.444;2022-10-16T13:51:59;20.90;99.90
61092;DHT22;46975;51.898;11.444;2022-10-16T13:54:26;20.80;99.90
61092;DHT22;46975;51.898;11.444;2022-10-16T13:56:54;20.80;99.90
61092;DHT22;46975;51.898;11.444;2022-10-16T13:59:24;20.90;99.90
61092;DHT22;46975;51.898;11.444;2022-10-16T14:01:55;21.10;99.90
61092;DHT22;46975;51.898;11.444;2022-10-16T14:04:21;21.10;99.90
61092;DHT22;46975;51.898;11.444;2022-10-16T14:06:50;21.10;99.90
61092;DHT22;46975;51.898;11.444;2022-10-16T14:09:29;21.10;99.90
61092;DHT22;46975;51.898;11.444;2022-10-16T14:12:01;21.10;99.90
61092;DHT22;46975;51.898;11.444;2022-10-16T14:14:33;21.20;99.90
61092;DHT22;46975;51.898;11.444;2022-10-16T14:16:59;21.10;99.90
61092;DHT22;46975;51.898;11.444;2022-10-16T14:19:27;21.10;99.90
61092;DHT22;46975;51.898;11.444;2022-10-16T14:21:54;21.20;99.90
61092;DHT22;46975;51.898;11.444;2022-10-16T14:24:32;21.00;99.90
61092;DHT22;46975;51.898;11.444;2022-10-16T14:26:59;20.90;99.90
61092;DHT22;46975;51.898;11.444;2022-10-16T14:29:26;20.90;99.90
61092;DHT22;46975;51.898;11.444;2022-10-16T14:32:04;20.80;99.90
61092;DHT22;46975;51.898;11.444;2022-10-16T14:34:32;20.80;99.90
61092;DHT22;46975;51.898;11.444;2022-10-16T14:37:23;20.70;99.90
61092;DHT22;46975;51.898;11.444;2022-10-16T14:39:53;20.60;99.90
61092;DHT22;46975;51.898;11.444;2022-10-16T14:42:21;20.60;99.90
61092;DHT22;46975;51.898;11.444;2022-10-16T14:44:50;20.50;99.90
61092;DHT22;46975;51.898;11.444;2022-10-16T14:47:22;20.40;99.90
61092;DHT22;46975;51.898;11.444;2022-10-16T14:49:51;20.30;99.90
61092;DHT22;46975;51.898;11.444;2022-10-16T14:52:18;20.30;99.90
61092;DHT22;46975;51.898;11.444;2022-10-16T14:54:47;20.20;99.90
61092;DHT22;46975;51.898;11.444;2022-10-16T14:57:18;20.20;99.90
61092;DHT22;46975;51.898;11.444;2022-10-16T14:59:45;20.30;99.90
61092;DHT22;46975;51.898;11.444;2022-10-16T15:04:46;20.00;99.90
61092;DHT22;46975;51.898;11.444;2022-10-16T15:07:12;19.80;99.90
61092;DHT22;46975;51.898;11.444;2022-10-16T15:09:38;19.60;99.90
61092;DHT22;46975;51.898;11.444;2022-10-16T15:12:03;19.50;99.90
61092;DHT22;46975;51.898;11.444;2022-10-16T15:14:29;19.30;99.90
61092;DHT22;46975;51.898;11.444;2022-10-16T15:16:55;19.20;99.90
61092;DHT22;46975;51.898;11.444;2022-10-16T15:19:21;19.10;99.90
61092;DHT22;46975;51.898;11.444;2022-10-16T15:21:47;18.90;99.90
61092;DHT22;46975;51.898;11.444;2022-10-16T15:24:13;18.80;99.90
61092;DHT22;46975;51.898;11.444;2022-10-16T15:26:39;18.60;99.90
61092;DHT22;46975;51.898;11.444;2022-10-16T15:29:05;18.50;99.90
61092;DHT22;46975;51.898;11.444;2022-10-16T15:31:31;18.40;99.90
61092;DHT22;46975;51.898;11.444;2022-10-16T15:33:57;18.20;99.90
61092;DHT22;46975;51.898;11.444;2022-10-16T15:36:36;18.10;99.90
61092;DHT22;46975;51.898;11.444;2022-10-16T15:39:13;18.00;99.90
61092;DHT22;46975;51.898;11.444;2022-10-16T15:41:40;17.90;99.90
61092;DHT22;46975;51.898;11.444;2022-10-16T15:44:06;17.80;99.90
61092;DHT22;46975;51.898;11.444;2022-10-16T15:46:32;17.70;99.90
61092;DHT22;46975;51.898;11.444;2022-10-16T15:48:59;17.60;99.90
61092;DHT22;46975;51.898;11.444;2022-10-16T15:51:26;17.60;99.90
61092;DHT22;46975;51.898;11.444;2022-10-16T15:53:58;17.50;99.90
61092;DHT22;46975;51.898;11.444;2022-10-16T15:56:27;17.40;99.90
61092;DHT22;46975;51.898;11.444;2022-10-16T15:58:55;17.40;99.90
61092;DHT22;46975;51.898;11.444;2022-10-16T16:01:22;17.20;99.90
61092;DHT22;46975;51.898;11.444;2022-10-16T16:03:48;17.10;99.90
61092;DHT22;46975;51.898;11.444;2022-10-16T16:06:17;17.00;99.90
61092;DHT22;46975;51.898;11.444;2022-10-16T16:08:43;16.90;99.90
61092;DHT22;46975;51.898;11.444;2022-10-16T16:11:10;16.80;99.90
61092;DHT22;46975;51.898;11.444;2022-10-16T16:13:36;16.60;99.90
61092;DHT22;46975;51.898;11.444;2022-10-16T16:16:08;16.60;99.90
61092;DHT22;46975;51.898;11.444;2022-10-16T16:18:34;16.40;99.90
61092;DHT22;46975;51.898;11.444;2022-10-16T16:21:00;16.40;99.90
61092;DHT22;46975;51.898;11.444;2022-10-16T16:23:25;16.30;99.90
61092;DHT22;46975;51.898;11.444;2022-10-16T16:26:10;16.20;99.90
61092;DHT22;46975;51.898;11.444;2022-10-16T16:28:37;16.10;99.90
61092;DHT22;46975;51.898;11.444;2022-10-16T16:31:04;16.00;99.90
61092;DHT22;46975;51.898;11.444;2022-10-16T16:33:29;15.90;99.90
61092;DHT22;46975;51.898;11.444;2022-10-16T16:36:01;15.90;99.90
61092;DHT22;46975;51.898;11.444;2022-10-16T16:38:27;15.80;99.90
61092;DHT22;46975;51.898;11.444;2022-10-16T16:40:54;15.80;99.90
61092;DHT22;46975;51.898;11.444;2022-10-16T16:43:23;15.70;99.90
61092;DHT22;46975;51.898;11.444;2022-10-16T16:45:49;15.60;99.90
61092;DHT22;46975;51.898;11.444;2022-10-16T16:48:14;15.50;99.90
61092;DHT22;46975;51.898;11.444;2022-10-16T16:50:40;15.40;99.90
61092;DHT22;46975;51.898;11.444;2022-10-16T16:53:06;15.30;99.90
61092;DHT22;46975;51.898;11.444;2022-10-16T16:55:33;15.30;99.90
61092;DHT22;46975;51.898;11.444;2022-10-16T16:57:58;15.30;99.90
61092;DHT22;46975;51.898;11.444;2022-10-16T17:00:25;15.20;99.90
61092;DHT22;46975;51.898;11.444;2022-10-16T17:02:51;15.20;99.90
61092;DHT22;46975;51.898;11.444;2022-10-16T17:05:18;15.20;99.90
61092;DHT22;46975;51.898;11.444;2022-10-16T17:07:43;15.10;99.90
61092;DHT22;46975;51.898;11.444;2022-10-16T17:10:09;15.10;99.90
61092;DHT22;46975;51.898;11.444;2022-10-16T17:12:35;15.10;99.90
61092;DHT22;46975;51.898;11.444;2022-10-16T17:15:01;15.00;99.90
61092;DHT22;46975;51.898;11.444;2022-10-16T17:17:27;15.00;99.90
61092;DHT22;46975;51.898;11.444;2022-10-16T17:19:52;15.00;99.90
61092;DHT22;46975;51.898;11.444;2022-10-16T17:22:19;15.00;99.90
61092;DHT22;46975;51.898;11.444;2022-10-16T17:24:48;15.00;99.90
61092;DHT22;46975;51.898;11.444;2022-10-16T17:27:15;14.90;99.90
61092;DHT22;46975;51.898;11.444;2022-10-16T17:29:40;14.90;99.90
61092;DHT22;46975;51.898;11.444;2022-10-16T17:32:06;14.80;99.90
61092;DHT22;46975;51.898;11.444;2022-10-16T17:34:32;14.70;99.90
61092;DHT22;46975;51.898;11.444;2022-10-16T17:36:59;14.60;99.90